Time;durP1;ratioP1;P1;durP2;ratioP2;P2;SDS_P1;SDS_P2;PMS_P1;PMS_P2;Temp;Humidity;BMP_temperature;BMP_pressure;BME280_temperature;BME280_humidity;BME280_pressure;Samples;Min_cycle;Max_cycle;Signal;HPM_P1;HPM_P2
2021/05/02 00:02:05;;;;;;;8.68;4.40;;;;;;;;;;5062010;28;20037;-56
2021/05/02 00:04:31;;;;;;;8.55;4.45;;;;;;;;;;5040284;28;20048;-55
2021/05/02 00:06:57;;;;;;;12.48;4.50;;;;;;;;;;5061919;28;20040;-58
2021/05/02 00:09:23;;;;;;;9.52;4.35;;;;;;;;;;5036453;28;20056;-58
2021/05/02 00:11:50;;;;;;;8.63;4.45;;;;;;;;;;5044227;28;20029;-57
2021/05/02 00:14:16;;;;;;;10.40;4.40;;;;;;;;;;5041977;28;20059;-56
2021/05/02 00:16:42;;;;;;;9.98;3.88;;;;;;;;;;5045695;28;20052;-58
2021/05/02 00:19:09;;;;;;;7.20;4.03;;;;;;;;;;5037466;28;20029;-57
2021/05/02 00:21:35;;;;;;;11.98;4.65;;;;;;;;;;5038849;28;20044;-58
2021/05/02 00:24:02;;;;;;;11.75;5.05;;;;;;;;;;5038516;28;20060;-56
2021/05/02 00:26:29;;;;;;;12.13;4.68;;;;;;;;;;5060638;28;20064;-57
2021/05/02 00:28:57;;;;;;;10.75;4.38;;;;;;;;;;5061076;28;20090;-57
2021/05/02 00:31:23;;;;;;;7.43;3.83;;;;;;;;;;5041956;28;20040;-56
2021/05/02 00:33:49;;;;;;;8.55;4.25;;;;;;;;;;5043228;28;20053;-57
2021/05/02 00:36:16;;;;;;;9.70;3.88;;;;;;;;;;5039688;28;20059;-57
2021/05/02 00:38:43;;;;;;;8.10;4.10;;;;;;;;;;5042104;28;20049;-53
2021/05/02 00:41:10;;;;;;;11.18;4.20;;;;;;;;;;5037634;28;20041;-56
2021/05/02 00:43:37;;;;;;;11.00;4.63;;;;;;;;;;5044631;28;20048;-56
2021/05/02 00:46:09;;;;;;;10.05;4.00;;;;;;;;;;5038679;28;20091;-52
2021/05/02 00:48:42;;;;;;;10.05;4.15;;;;;;;;;;5035571;28;20029;-57
2021/05/02 00:51:10;;;;;;;6.82;3.65;;;;;;;;;;5041294;28;20025;-52
2021/05/02 00:53:43;;;;;;;10.98;3.65;;;;;;;;;;5039925;28;20060;-53
2021/05/02 00:56:22;;;;;;;11.50;3.92;;;;;;;;;;5039636;28;20080;-57
2021/05/02 00:58:53;;;;;;;10.15;3.90;;;;;;;;;;5041217;28;20056;-56
2021/05/02 01:01:21;;;;;;;7.47;3.63;;;;;;;;;;5038291;28;20064;-56
2021/05/02 01:03:47;;;;;;;10.77;3.60;;;;;;;;;;5061731;28;20064;-56
2021/05/02 01:06:17;;;;;;;11.43;3.42;;;;;;;;;;5039287;28;20110;-59
2021/05/02 01:08:43;;;;;;;11.00;3.97;;;;;;;;;;5042546;28;20053;-55
2021/05/02 01:11:11;;;;;;;8.80;4.10;;;;;;;;;;5037369;28;20048;-55
2021/05/02 01:13:38;;;;;;;9.10;3.88;;;;;;;;;;5060604;28;20047;-52
2021/05/02 01:16:06;;;;;;;12.07;3.45;;;;;;;;;;5039989;28;20537;-58
2021/05/02 01:18:35;;;;;;;9.35;3.60;;;;;;;;;;5040012;28;20045;-54
2021/05/02 01:21:02;;;;;;;9.00;3.50;;;;;;;;;;5037706;28;20040;-53
2021/05/02 01:23:30;;;;;;;9.00;3.30;;;;;;;;;;5040845;28;20052;-58
2021/05/02 01:25:57;;;;;;;9.07;3.38;;;;;;;;;;5041489;28;20130;-55
2021/05/02 01:28:23;;;;;;;9.15;3.45;;;;;;;;;;5056247;28;20056;-54
2021/05/02 01:30:50;;;;;;;11.45;3.45;;;;;;;;;;5044849;28;20040;-57
2021/05/02 01:33:16;;;;;;;7.85;2.97;;;;;;;;;;5038156;28;20029;-57
2021/05/02 01:35:42;;;;;;;7.53;3.35;;;;;;;;;;5043007;28;20036;-57
2021/05/02 01:38:09;;;;;;;8.70;3.30;;;;;;;;;;5038873;28;20142;-58
2021/05/02 01:40:36;;;;;;;7.43;3.20;;;;;;;;;;5040906;28;20051;-56
2021/05/02 01:43:02;;;;;;;7.55;2.88;;;;;;;;;;5039730;28;20048;-57
2021/05/02 01:45:29;;;;;;;6.22;3.08;;;;;;;;;;5041129;28;20063;-58
2021/05/02 01:47:59;;;;;;;10.82;2.83;;;;;;;;;;5038932;28;20069;-56
2021/05/02 01:50:26;;;;;;;9.05;2.75;;;;;;;;;;5061893;28;20037;-58
2021/05/02 01:52:54;;;;;;;6.82;2.97;;;;;;;;;;5039566;28;20041;-51
2021/05/02 01:55:21;;;;;;;7.32;2.88;;;;;;;;;;5044900;28;20068;-54
2021/05/02 01:57:49;;;;;;;6.78;2.70;;;;;;;;;;5036058;28;20043;-57
2021/05/02 02:00:28;;;;;;;5.80;2.47;;;;;;;;;;5043078;28;20048;-52
2021/05/02 02:02:54;;;;;;;6.72;2.65;;;;;;;;;;5041021;28;20041;-52
2021/05/02 02:05:21;;;;;;;9.52;2.90;;;;;;;;;;5044983;28;20040;-57
2021/05/02 02:07:47;;;;;;;8.25;2.22;;;;;;;;;;5043471;28;20110;-56
2021/05/02 02:10:15;;;;;;;7.22;2.42;;;;;;;;;;5038929;28;20057;-54
2021/05/02 02:12:41;;;;;;;11.60;2.73;;;;;;;;;;5041892;28;20037;-56
2021/05/02 02:15:09;;;;;;;5.63;2.47;;;;;;;;;;5037986;28;20045;-57
2021/05/02 02:17:37;;;;;;;6.37;2.37;;;;;;;;;;5027401;28;20029;-53
2021/05/02 02:20:04;;;;;;;7.85;2.33;;;;;;;;;;5038584;28;20281;-54
2021/05/02 02:22:30;;;;;;;6.78;2.25;;;;;;;;;;5060909;28;20025;-58
2021/05/02 02:24:58;;;;;;;8.07;2.38;;;;;;;;;;5040499;28;20117;-54
2021/05/02 02:27:26;;;;;;;5.80;2.58;;;;;;;;;;5044384;28;20045;-55
2021/05/02 02:29:52;;;;;;;5.45;2.05;;;;;;;;;;5041212;28;20040;-55
2021/05/02 02:32:19;;;;;;;4.35;2.08;;;;;;;;;;5044668;28;20163;-56
2021/05/02 02:34:46;;;;;;;5.25;1.95;;;;;;;;;;5049864;28;20041;-57
2021/05/02 02:37:14;;;;;;;8.05;2.22;;;;;;;;;;5041483;28;20052;-57
2021/05/02 02:39:42;;;;;;;9.10;2.05;;;;;;;;;;5038596;28;20044;-54
2021/05/02 02:42:08;;;;;;;;;;;;;;;;;;5044547;28;20052;-55
2021/05/02 02:44:38;;;;;;;5.70;2.00;;;;;;;;;;5039168;28;19925;-56
2021/05/02 02:47:06;;;;;;;5.50;1.80;;;;;;;;;;5042505;28;20041;-56
2021/05/02 02:49:33;;;;;;;7.13;2.03;;;;;;;;;;5043949;28;20052;-58
2021/05/02 02:52:02;;;;;;;4.22;1.90;;;;;;;;;;5058721;28;20055;-56
2021/05/02 02:54:29;;;;;;;6.70;2.00;;;;;;;;;;5043491;28;20021;-56
2021/05/02 02:56:56;;;;;;;6.47;2.30;;;;;;;;;;5058056;28;20052;-53
2021/05/02 02:59:25;;;;;;;4.90;1.90;;;;;;;;;;5044191;28;20088;-57
2021/05/02 03:01:54;;;;;;;5.82;2.20;;;;;;;;;;5104054;22;20057;-52
2021/05/02 03:04:22;;;;;;;5.05;2.05;;;;;;;;;;5044519;28;20037;-58
2021/05/02 03:06:51;;;;;;;4.43;1.60;;;;;;;;;;5031966;28;20050;-56
2021/05/02 03:09:17;;;;;;;6.55;2.20;;;;;;;;;;5026873;28;20053;-54
2021/05/02 03:11:43;;;;;;;8.63;1.77;;;;;;;;;;5048799;28;20041;-53
2021/05/02 03:14:11;;;;;;;5.88;1.75;;;;;;;;;;5035273;28;20045;-52
2021/05/02 03:16:38;;;;;;;5.03;2.15;;;;;;;;;;5048482;28;20033;-54
2021/05/02 03:19:07;;;;;;;4.13;1.80;;;;;;;;;;5034627;28;20150;-55
2021/05/02 03:21:38;;;;;;;3.85;1.65;;;;;;;;;;5040011;28;20041;-54
2021/05/02 03:24:07;;;;;;;5.80;1.70;;;;;;;;;;5048468;28;20044;-56
2021/05/02 03:26:41;;;;;;;7.93;1.60;;;;;;;;;;5017278;28;20065;-54
2021/05/02 03:29:09;;;;;;;4.63;1.80;;;;;;;;;;5025496;28;20037;-55
2021/05/02 03:31:38;;;;;;;5.70;1.83;;;;;;;;;;5050812;28;20044;-55
2021/05/02 03:34:04;;;;;;;5.50;2.15;;;;;;;;;;5058792;28;20038;-52
2021/05/02 03:36:35;;;;;;;3.95;1.50;;;;;;;;;;5039910;28;20053;-57
2021/05/02 03:39:01;;;;;;;6.35;1.80;;;;;;;;;;5036997;28;20045;-57
2021/05/02 03:41:28;;;;;;;4.05;1.77;;;;;;;;;;5038575;28;20118;-54
2021/05/02 03:43:54;;;;;;;4.97;1.90;;;;;;;;;;5041464;28;20048;-57
2021/05/02 03:46:26;;;;;;;7.75;1.77;;;;;;;;;;5060508;28;20041;-55
2021/05/02 03:48:53;;;;;;;5.63;1.60;;;;;;;;;;5067578;28;20037;-54
2021/05/02 03:51:19;;;;;;;5.88;2.03;;;;;;;;;;5063391;28;20029;-53
2021/05/02 03:53:45;;;;;;;6.30;1.73;;;;;;;;;;5065490;28;20041;-52
2021/05/02 03:56:28;;;;;;;3.88;1.50;;;;;;;;;;5038200;28;20045;-57
2021/05/02 03:59:02;;;;;;;10.30;1.88;;;;;;;;;;5035923;28;20056;-57
2021/05/02 04:01:29;;;;;;;3.38;1.63;;;;;;;;;;5053128;28;20037;-54
2021/05/02 04:03:55;;;;;;;3.08;1.58;;;;;;;;;;5042671;28;20048;-57
2021/05/02 04:06:22;;;;;;;9.77;1.77;;;;;;;;;;5046871;28;20029;-50
2021/05/02 04:08:48;;;;;;;9.35;2.00;;;;;;;;;;5028756;28;20056;-56
2021/05/02 04:11:14;;;;;;;5.75;1.75;;;;;;;;;;5024791;28;20069;-54
2021/05/02 04:13:40;;;;;;;5.45;1.85;;;;;;;;;;5047616;28;20044;-55
2021/05/02 04:16:07;;;;;;;8.20;1.95;;;;;;;;;;5082902;28;20061;-56
2021/05/02 04:18:33;;;;;;;8.13;1.95;;;;;;;;;;5062514;28;20033;-53
2021/05/02 04:20:59;;;;;;;3.60;1.70;;;;;;;;;;5066067;28;20051;-53
2021/05/02 04:23:25;;;;;;;7.95;1.80;;;;;;;;;;5062004;28;20032;-55
2021/05/02 04:25:58;;;;;;;8.25;1.88;;;;;;;;;;5066704;28;20037;-53
2021/05/02 04:28:24;;;;;;;5.03;1.60;;;;;;;;;;5050143;28;20033;-49
2021/05/02 04:30:50;;;;;;;4.78;1.60;;;;;;;;;;5070598;28;20032;-56
2021/05/02 04:33:17;;;;;;;5.63;1.63;;;;;;;;;;5071606;28;20051;-57
2021/05/02 04:35:55;;;;;;;5.68;1.70;;;;;;;;;;5065421;28;20032;-56
2021/05/02 04:38:21;;;;;;;5.60;1.70;;;;;;;;;;5069183;28;20024;-57
2021/05/02 04:40:47;;;;;;;5.10;1.75;;;;;;;;;;5064296;28;20021;-55
2021/05/02 04:43:13;;;;;;;4.28;1.90;;;;;;;;;;5067852;28;20067;-56
2021/05/02 04:45:40;;;;;;;3.45;1.63;;;;;;;;;;5065121;28;20043;-56
2021/05/02 04:48:06;;;;;;;4.60;2.00;;;;;;;;;;5067152;28;20033;-55
2021/05/02 04:50:33;;;;;;;7.53;2.10;;;;;;;;;;5065408;28;20036;-52
2021/05/02 04:52:59;;;;;;;11.38;2.00;;;;;;;;;;5085072;28;20043;-56
2021/05/02 04:55:28;;;;;;;9.52;2.10;;;;;;;;;;5064942;28;20028;-55
2021/05/02 04:57:54;;;;;;;7.50;1.90;;;;;;;;;;5086199;28;20064;-54
2021/05/02 05:00:21;;;;;;;5.60;1.80;;;;;;;;;;5062832;28;20051;-53
2021/05/02 05:02:47;;;;;;;7.97;2.40;;;;;;;;;;5086848;28;20048;-55
2021/05/02 05:05:13;;;;;;;8.25;2.20;;;;;;;;;;5064685;28;20047;-54
2021/05/02 05:07:40;;;;;;;7.07;2.00;;;;;;;;;;5068725;28;20044;-53
2021/05/02 05:10:06;;;;;;;5.80;2.00;;;;;;;;;;5068389;28;20029;-52
2021/05/02 05:12:32;;;;;;;4.70;2.20;;;;;;;;;;5062782;28;20047;-54
2021/05/02 05:14:58;;;;;;;6.47;2.10;;;;;;;;;;5068922;28;20042;-53
2021/05/02 05:17:51;;;;;;;10.48;2.30;;;;;;;;;;5062987;28;20124;-53
2021/05/02 05:20:17;;;;;;;8.15;2.28;;;;;;;;;;5035849;28;20492;-53
2021/05/02 05:22:44;;;;;;;7.18;2.33;;;;;;;;;;5067598;28;20051;-51
2021/05/02 05:25:10;;;;;;;9.23;2.25;;;;;;;;;;5064866;28;20048;-54
2021/05/02 05:27:36;;;;;;;8.15;2.60;;;;;;;;;;5061367;28;20044;-53
2021/05/02 05:30:03;;;;;;;5.93;2.00;;;;;;;;;;5066927;28;20039;-53
2021/05/02 05:32:29;;;;;;;10.13;2.38;;;;;;;;;;5064489;28;20050;-55
2021/05/02 05:34:55;;;;;;;8.27;2.28;;;;;;;;;;5068720;28;20029;-56
2021/05/02 05:37:34;;;;;;;7.10;2.10;;;;;;;;;;5064532;28;20133;-52
2021/05/02 05:40:02;;;;;;;;;;;;;;;;;;5068189;28;20036;-52
2021/05/02 05:42:28;;;;;;;6.00;2.10;;;;;;;;;;5063369;28;19971;-53
2021/05/02 05:44:54;;;;;;;5.72;2.17;;;;;;;;;;5086374;28;20036;-55
2021/05/02 05:47:23;;;;;;;9.13;2.55;;;;;;;;;;5064238;28;20097;-53
2021/05/02 05:49:49;;;;;;;8.15;1.90;;;;;;;;;;5068098;28;20040;-55
2021/05/02 05:52:15;;;;;;;13.75;2.30;;;;;;;;;;5064975;28;20096;-55
2021/05/02 05:54:41;;;;;;;6.25;2.40;;;;;;;;;;5086110;28;20098;-53
2021/05/02 05:57:08;;;;;;;6.90;2.70;;;;;;;;;;5066248;28;20043;-53
2021/05/02 05:59:35;;;;;;;7.00;1.85;;;;;;;;;;5075089;28;20146;-49
2021/05/02 06:02:01;;;;;;;12.82;2.10;;;;;;;;;;5059894;28;20048;-54
2021/05/02 06:04:27;;;;;;;6.85;2.00;;;;;;;;;;5032593;28;20037;-54
2021/05/02 06:06:53;;;;;;;10.10;2.28;;;;;;;;;;5042859;28;20052;-54
2021/05/02 06:09:20;;;;;;;9.00;2.20;;;;;;;;;;5024691;28;20041;-52
2021/05/02 06:11:47;;;;;;;6.22;1.73;;;;;;;;;;5025793;28;20041;-56
2021/05/02 06:14:13;;;;;;;5.95;1.85;;;;;;;;;;5020254;28;20038;-56
2021/05/02 06:16:41;;;;;;;4.53;1.98;;;;;;;;;;5024180;28;20070;-56
2021/05/02 06:19:07;;;;;;;11.50;2.97;;;;;;;;;;5028832;28;20057;-57
2021/05/02 06:21:34;;;;;;;9.88;3.22;;;;;;;;;;5043273;28;20540;-56
2021/05/02 06:24:00;;;;;;;9.63;2.10;;;;;;;;;;5035583;28;20409;-55
2021/05/02 06:26:26;;;;;;;5.22;2.03;;;;;;;;;;5038421;28;20043;-58
2021/05/02 06:28:52;;;;;;;5.88;1.60;;;;;;;;;;5036768;28;20045;-53
2021/05/02 06:31:19;;;;;;;7.93;1.77;;;;;;;;;;5036907;28;20049;-56
2021/05/02 06:33:46;;;;;;;7.45;2.20;;;;;;;;;;5036731;28;20049;-55
2021/05/02 06:36:14;;;;;;;7.55;1.80;;;;;;;;;;5038712;28;20062;-54
2021/05/02 06:38:40;;;;;;;8.30;1.88;;;;;;;;;;5036642;28;20580;-57
2021/05/02 06:41:06;;;;;;;6.70;1.50;;;;;;;;;;5037130;28;20057;-57
2021/05/02 06:43:33;;;;;;;8.02;1.73;;;;;;;;;;5034657;28;20048;-56
2021/05/02 06:45:59;;;;;;;4.88;1.55;;;;;;;;;;5048707;28;20038;-56
2021/05/02 06:48:27;;;;;;;5.53;1.92;;;;;;;;;;5031991;28;20049;-53
2021/05/02 06:50:57;;;;;;;6.15;1.80;;;;;;;;;;5031983;28;20065;-56
2021/05/02 06:53:23;;;;;;;5.40;1.40;;;;;;;;;;5037385;28;20077;-57
2021/05/02 06:56:00;;;;;;;6.00;1.40;;;;;;;;;;5034162;28;20096;-56
2021/05/02 06:58:26;;;;;;;4.15;1.20;;;;;;;;;;5035042;28;20068;-51
2021/05/02 07:00:52;;;;;;;5.55;1.50;;;;;;;;;;5031077;28;20130;-53
2021/05/02 07:03:21;;;;;;;6.75;1.30;;;;;;;;;;5066458;28;20036;-55
2021/05/02 07:05:47;;;;;;;5.90;1.38;;;;;;;;;;5087590;28;20052;-56
2021/05/02 07:08:14;;;;;;;8.85;1.17;;;;;;;;;;5055653;28;20033;-56
2021/05/02 07:10:43;;;;;;;4.55;1.50;;;;;;;;;;5059871;28;20043;-58
2021/05/02 07:13:08;;;;;;;;;;;;;;;;;;5061025;28;20036;-57
2021/05/02 07:15:39;;;;;;;4.55;1.40;;;;;;;;;;5078818;28;19923;-54
2021/05/02 07:18:05;;;;;;;7.90;1.75;;;;;;;;;;5064160;28;20048;-56
2021/05/02 07:20:31;;;;;;;4.25;1.50;;;;;;;;;;5055832;28;20052;-57
2021/05/02 07:22:57;;;;;;;4.57;1.55;;;;;;;;;;5062825;28;20093;-53
2021/05/02 07:25:26;;;;;;;2.80;1.13;;;;;;;;;;5059271;28;20042;-58
2021/05/02 07:27:53;;;;;;;5.38;1.25;;;;;;;;;;5061268;28;20043;-51
2021/05/02 07:30:20;;;;;;;3.65;1.10;;;;;;;;;;5062767;28;20068;-54
2021/05/02 07:32:46;;;;;;;7.10;1.35;;;;;;;;;;5057870;28;20032;-58
2021/05/02 07:35:12;;;;;;;3.40;1.20;;;;;;;;;;5060513;28;20037;-57
2021/05/02 07:37:38;;;;;;;4.63;1.30;;;;;;;;;;5071859;28;20037;-58
2021/05/02 07:40:05;;;;;;;1.83;1.13;;;;;;;;;;5061672;28;20068;-56
2021/05/02 07:42:32;;;;;;;3.20;1.30;;;;;;;;;;5079775;28;20038;-52
2021/05/02 07:44:58;;;;;;;3.88;1.25;;;;;;;;;;5071407;28;20047;-58
2021/05/02 07:47:24;;;;;;;4.93;1.40;;;;;;;;;;5053486;28;20052;-54
2021/05/02 07:49:50;;;;;;;5.32;1.17;;;;;;;;;;5057532;28;20118;-58
2021/05/02 07:52:16;;;;;;;4.63;1.33;;;;;;;;;;5056514;28;20040;-55
2021/05/02 07:54:42;;;;;;;1.63;0.90;;;;;;;;;;5060516;28;20039;-58
2021/05/02 07:57:09;;;;;;;3.67;1.00;;;;;;;;;;5057454;28;20032;-56
2021/05/02 07:59:38;;;;;;;3.67;0.98;;;;;;;;;;5067192;28;20072;-57
2021/05/02 08:02:03;;;;;;;;;;;;;;;;;;5064481;28;20040;-57
2021/05/02 08:04:29;;;;;;;4.07;1.02;;;;;;;;;;5066725;28;19932;-53
2021/05/02 08:07:06;;;;;;;1.48;1.00;;;;;;;;;;5087585;28;20028;-56
2021/05/02 08:09:32;;;;;;;4.63;1.50;;;;;;;;;;5066703;28;20055;-57
2021/05/02 08:11:58;;;;;;;4.13;1.20;;;;;;;;;;5087018;28;20032;-58
2021/05/02 08:14:24;;;;;;;9.32;1.13;;;;;;;;;;5063364;28;20036;-58
2021/05/02 08:16:52;;;;;;;2.30;0.85;;;;;;;;;;5069304;28;20040;-56
2021/05/02 08:19:18;;;;;;;2.05;0.70;;;;;;;;;;5064709;28;20470;-53
2021/05/02 08:21:44;;;;;;;3.90;1.08;;;;;;;;;;5066732;28;20121;-57
2021/05/02 08:24:11;;;;;;;3.45;0.80;;;;;;;;;;5065145;28;20052;-54
2021/05/02 08:26:38;;;;;;;2.88;1.08;;;;;;;;;;5068286;28;20044;-55
2021/05/02 08:29:06;;;;;;;2.13;1.10;;;;;;;;;;5080752;28;20041;-56
2021/05/02 08:31:32;;;;;;;3.53;0.98;;;;;;;;;;5068650;28;20040;-53
2021/05/02 08:33:59;;;;;;;2.47;0.80;;;;;;;;;;5062012;28;20024;-57
2021/05/02 08:36:27;;;;;;;9.77;0.85;;;;;;;;;;5085412;28;20047;-52
2021/05/02 08:38:53;;;;;;;2.35;0.90;;;;;;;;;;5064694;28;20036;-56
2021/05/02 08:41:19;;;;;;;5.30;1.13;;;;;;;;;;5069442;28;20044;-56
2021/05/02 08:43:50;;;;;;;3.33;0.93;;;;;;;;;;5086228;28;20036;-53
2021/05/02 08:46:19;;;;;;;1.88;0.82;;;;;;;;;;5066303;28;20045;-57
2021/05/02 08:48:45;;;;;;;6.53;1.08;;;;;;;;;;5068471;28;20033;-56
2021/05/02 08:51:12;;;;;;;3.83;0.77;;;;;;;;;;5062212;28;20126;-55
2021/05/02 08:53:38;;;;;;;1.95;0.93;;;;;;;;;;5085371;28;20020;-58
2021/05/02 08:56:04;;;;;;;2.35;0.82;;;;;;;;;;5060492;28;20040;-59
2021/05/02 08:58:30;;;;;;;2.25;0.80;;;;;;;;;;5057248;28;20093;-55
2021/05/02 09:00:57;;;;;;;2.92;0.93;;;;;;;;;;5066621;28;20048;-58
2021/05/02 09:03:39;;;;;;;3.67;0.90;;;;;;;;;;5084757;28;20044;-55
2021/05/02 09:06:13;;;;;;;2.47;0.70;;;;;;;;;;5064063;28;20029;-58
2021/05/02 09:08:40;;;;;;;3.78;1.10;;;;;;;;;;5066195;28;20094;-57
2021/05/02 09:11:06;;;;;;;2.88;0.90;;;;;;;;;;5064498;28;20089;-55
2021/05/02 09:13:32;;;;;;;4.72;0.90;;;;;;;;;;5085638;28;20047;-57
2021/05/02 09:15:58;;;;;;;3.22;1.00;;;;;;;;;;5065280;28;20061;-58
2021/05/02 09:18:34;;;;;;;2.85;1.00;;;;;;;;;;5065687;28;20032;-57
2021/05/02 09:21:00;;;;;;;3.75;0.90;;;;;;;;;;5081174;28;20074;-56
2021/05/02 09:23:34;;;;;;;4.07;0.88;;;;;;;;;;5067853;28;20028;-58
2021/05/02 09:26:05;;;;;;;2.58;0.77;;;;;;;;;;5061678;28;20028;-59
2021/05/02 09:28:40;;;;;;;1.20;0.60;;;;;;;;;;5071225;28;20036;-59
2021/05/02 09:31:07;;;;;;;1.38;0.68;;;;;;;;;;5078943;28;20032;-57
2021/05/02 09:33:33;;;;;;;1.30;0.60;;;;;;;;;;5068129;28;20032;-58
2021/05/02 09:36:09;;;;;;;3.63;1.00;;;;;;;;;;5063658;28;20036;-57
2021/05/02 09:38:35;;;;;;;1.33;0.73;;;;;;;;;;5065224;28;20040;-58
2021/05/02 09:41:02;;;;;;;3.95;1.05;;;;;;;;;;5066428;28;20033;-58
2021/05/02 09:43:30;;;;;;;2.90;1.00;;;;;;;;;;5047901;28;20032;-57
2021/05/02 09:46:09;;;;;;;2.08;0.70;;;;;;;;;;5068528;28;20102;-58
2021/05/02 09:48:49;;;;;;;3.97;1.00;;;;;;;;;;5067690;28;20036;-58
2021/05/02 09:51:15;;;;;;;2.25;0.82;;;;;;;;;;5068212;28;20047;-54
2021/05/02 09:53:56;;;;;;;6.63;1.05;;;;;;;;;;5063175;28;20045;-58
2021/05/02 09:56:30;;;;;;;1.83;0.90;;;;;;;;;;5065670;28;20036;-57
2021/05/02 09:58:57;;;;;;;3.90;0.80;;;;;;;;;;5082302;28;20032;-57
2021/05/02 10:01:23;;;;;;;0.75;0.60;;;;;;;;;;5085512;28;20073;-57
2021/05/02 10:03:51;;;;;;;3.38;0.55;;;;;;;;;;5044927;28;20033;-56
2021/05/02 10:06:29;;;;;;;1.85;1.00;;;;;;;;;;5043933;28;20176;-57
2021/05/02 10:08:55;;;;;;;4.72;1.30;;;;;;;;;;5056601;28;20092;-56
2021/05/02 10:11:23;;;;;;;3.25;1.00;;;;;;;;;;5066284;28;20037;-56
2021/05/02 10:13:49;;;;;;;4.32;1.10;;;;;;;;;;5057490;28;20037;-58
2021/05/02 10:16:21;;;;;;;3.67;1.25;;;;;;;;;;5044534;28;20087;-59
2021/05/02 10:18:49;;;;;;;3.88;1.08;;;;;;;;;;5050436;28;20117;-58
2021/05/02 10:21:15;;;;;;;2.92;1.13;;;;;;;;;;5064256;28;20114;-59
2021/05/02 10:23:42;;;;;;;2.33;1.00;;;;;;;;;;5053365;28;20041;-57
2021/05/02 10:26:10;;;;;;;3.60;1.20;;;;;;;;;;5043330;28;20048;-58
2021/05/02 10:28:36;;;;;;;6.80;1.35;;;;;;;;;;5046598;28;20065;-58
2021/05/02 10:31:04;;;;;;;1.40;0.98;;;;;;;;;;5058269;28;20025;-58
2021/05/02 10:33:32;;;;;;;2.15;1.10;;;;;;;;;;5064002;28;20029;-58
2021/05/02 10:35:59;;;;;;;3.17;0.82;;;;;;;;;;5045673;28;20038;-58
2021/05/02 10:38:40;;;;;;;4.43;0.80;;;;;;;;;;5040610;28;20037;-53
2021/05/02 10:41:20;;;;;;;1.80;0.88;;;;;;;;;;5044375;28;20046;-58
2021/05/02 10:43:46;;;;;;;3.17;0.80;;;;;;;;;;5038578;28;20033;-58
2021/05/02 10:46:44;;;;;;;2.97;0.90;;;;;;;;;;5043317;28;20160;-55
2021/05/02 10:49:11;;;;;;;2.03;0.80;;;;;;;;;;5030367;28;20048;-58
2021/05/02 10:51:38;;;;;;;2.70;0.98;;;;;;;;;;5043195;28;20037;-57
2021/05/02 10:54:05;;;;;;;2.63;1.00;;;;;;;;;;5048815;28;20047;-58
2021/05/02 10:56:55;;;;;;;1.73;0.82;;;;;;;;;;5054021;28;20037;-57
2021/05/02 10:59:22;;;;;;;3.33;0.80;;;;;;;;;;5054811;28;20037;-58
2021/05/02 11:01:49;;;;;;;6.75;1.20;;;;;;;;;;5071645;28;20072;-58
2021/05/02 11:04:16;;;;;;;2.38;0.95;;;;;;;;;;5077099;28;20040;-58
2021/05/02 11:07:13;;;;;;;1.70;1.00;;;;;;;;;;5058362;28;20045;-59
2021/05/02 11:09:53;;;;;;;2.72;0.93;;;;;;;;;;5076528;28;20029;-57
2021/05/02 11:12:26;;;;;;;5.47;1.58;;;;;;;;;;5087184;28;20051;-59
2021/05/02 11:14:52;;;;;;;2.95;1.10;;;;;;;;;;5076162;28;20065;-58
2021/05/02 11:17:22;;;;;;;1.88;1.05;;;;;;;;;;5077989;28;20045;-58
2021/05/02 11:19:50;;;;;;;1.80;1.08;;;;;;;;;;5063191;28;20139;-57
2021/05/02 11:22:17;;;;;;;2.28;1.00;;;;;;;;;;5057771;28;20060;-59
2021/05/02 11:24:56;;;;;;;3.45;1.10;;;;;;;;;;5057723;28;20048;-58
2021/05/02 11:27:44;;;;;;;2.13;0.90;;;;;;;;;;5056394;28;20040;-59
2021/05/02 11:30:18;;;;;;;2.78;1.05;;;;;;;;;;5080186;28;20044;-59
2021/05/02 11:32:45;;;;;;;2.72;1.25;;;;;;;;;;5062802;28;20041;-59
2021/05/02 11:35:14;;;;;;;3.92;1.02;;;;;;;;;;5063298;28;20032;-58
2021/05/02 11:37:42;;;;;;;2.97;0.80;;;;;;;;;;5079598;28;20029;-55
2021/05/02 11:40:25;;;;;;;2.73;0.90;;;;;;;;;;5088239;28;20048;-59
2021/05/02 11:42:52;;;;;;;4.82;1.42;;;;;;;;;;5038104;28;20363;-59
2021/05/02 11:45:19;;;;;;;2.28;1.10;;;;;;;;;;5049501;28;20052;-58
2021/05/02 11:47:45;;;;;;;2.47;1.10;;;;;;;;;;5077882;28;20056;-55
2021/05/02 11:50:11;;;;;;;5.43;1.25;;;;;;;;;;5070342;28;20029;-57
2021/05/02 11:52:45;;;;;;;8.10;2.65;;;;;;;;;;5066368;28;20048;-54
2021/05/02 11:55:31;;;;;;;5.38;2.00;;;;;;;;;;5082786;28;20055;-57
2021/05/02 11:57:57;;;;;;;3.97;1.48;;;;;;;;;;5058801;28;20056;-57
2021/05/02 12:00:39;;;;;;;6.03;1.20;;;;;;;;;;5068833;28;20034;-58
2021/05/02 12:03:05;;;;;;;3.03;1.10;;;;;;;;;;5081642;28;20036;-56
2021/05/02 12:05:46;;;;;;;6.32;1.52;;;;;;;;;;5077962;28;20047;-58
2021/05/02 12:08:13;;;;;;;5.82;1.08;;;;;;;;;;5065618;28;20056;-58
2021/05/02 12:10:40;;;;;;;1.98;0.95;;;;;;;;;;5088009;28;20170;-59
2021/05/02 12:13:06;;;;;;;4.90;1.15;;;;;;;;;;5081493;28;20032;-58
2021/05/02 12:15:58;;;;;;;6.78;1.60;;;;;;;;;;5068502;28;20099;-59
2021/05/02 12:18:39;;;;;;;1.67;1.00;;;;;;;;;;5064853;28;20064;-58
2021/05/02 12:21:15;;;;;;;2.03;1.00;;;;;;;;;;5069901;28;20028;-56
2021/05/02 12:23:43;;;;;;;2.05;1.00;;;;;;;;;;5065832;28;20040;-59
2021/05/02 12:26:14;;;;;;;3.22;1.20;;;;;;;;;;5057321;28;20047;-58
2021/05/02 12:28:41;;;;;;;1.45;0.80;;;;;;;;;;5053495;28;20057;-58
2021/05/02 12:31:07;;;;;;;3.22;1.00;;;;;;;;;;5069949;28;20021;-58
2021/05/02 12:33:37;;;;;;;2.75;0.95;;;;;;;;;;5065062;28;20102;-57
2021/05/02 12:36:06;;;;;;;4.60;0.80;;;;;;;;;;5069873;28;20036;-57
2021/05/02 12:38:32;;;;;;;2.60;1.30;;;;;;;;;;5065778;28;20117;-57
2021/05/02 12:41:00;;;;;;;2.50;0.90;;;;;;;;;;5070023;28;20036;-57
2021/05/02 12:43:26;;;;;;;3.50;0.90;;;;;;;;;;5065430;28;20047;-58
2021/05/02 12:45:59;;;;;;;1.02;0.75;;;;;;;;;;5066696;28;20040;-58
2021/05/02 12:48:30;;;;;;;2.67;1.40;;;;;;;;;;5067102;28;20056;-56
2021/05/02 12:50:57;;;;;;;3.05;1.60;;;;;;;;;;5066133;28;20043;-58
2021/05/02 12:53:35;;;;;;;2.60;1.17;;;;;;;;;;5051754;28;20029;-55
2021/05/02 12:56:04;;;;;;;6.63;1.40;;;;;;;;;;5065801;28;20042;-59
2021/05/02 12:58:37;;;;;;;1.92;1.08;;;;;;;;;;5068136;28;20025;-58
2021/05/02 13:01:15;;;;;;;4.15;1.50;;;;;;;;;;5064807;28;20044;-58
2021/05/02 13:03:52;;;;;;;4.10;1.30;;;;;;;;;;5070073;28;20037;-58
2021/05/02 13:06:19;;;;;;;6.35;1.20;;;;;;;;;;5080566;28;20028;-56
2021/05/02 13:08:53;;;;;;;3.42;1.15;;;;;;;;;;5087959;28;20051;-59
2021/05/02 13:11:23;;;;;;;2.03;1.20;;;;;;;;;;5066459;28;20024;-57
2021/05/02 13:14:04;;;;;;;1.92;1.15;;;;;;;;;;5067845;28;20032;-57
2021/05/02 13:16:39;;;;;;;3.28;1.20;;;;;;;;;;5060770;28;20040;-59
2021/05/02 13:19:05;;;;;;;2.35;1.08;;;;;;;;;;5067524;28;20040;-59
2021/05/02 13:21:31;;;;;;;2.95;1.20;;;;;;;;;;5063960;28;20124;-58
2021/05/02 13:24:06;;;;;;;1.65;0.93;;;;;;;;;;5067738;28;20032;-58
2021/05/02 13:26:40;;;;;;;1.13;0.70;;;;;;;;;;5063227;28;20047;-59
2021/05/02 13:29:16;;;;;;;2.05;1.00;;;;;;;;;;5068247;28;20044;-58
2021/05/02 13:31:44;;;;;;;2.92;1.25;;;;;;;;;;5062280;28;20048;-58
2021/05/02 13:34:11;;;;;;;2.13;1.10;;;;;;;;;;5067831;28;20048;-59
2021/05/02 13:36:39;;;;;;;2.20;1.05;;;;;;;;;;5067257;28;20032;-58
2021/05/02 13:39:06;;;;;;;2.28;0.90;;;;;;;;;;5092331;28;20040;-59
2021/05/02 13:41:32;;;;;;;5.10;1.83;;;;;;;;;;5083906;28;20036;-58
2021/05/02 13:44:03;;;;;;;1.70;1.10;;;;;;;;;;5058771;28;20073;-60
2021/05/02 13:46:29;;;;;;;3.17;1.08;;;;;;;;;;5071277;28;20396;-59
2021/05/02 13:48:55;;;;;;;3.42;1.10;;;;;;;;;;5055096;28;20037;-58
2021/05/02 13:51:21;;;;;;;2.08;1.00;;;;;;;;;;5081020;28;20033;-58
2021/05/02 13:53:49;;;;;;;2.65;1.00;;;;;;;;;;5080918;28;20036;-58
2021/05/02 13:56:18;;;;;;;2.73;1.00;;;;;;;;;;5062931;28;20081;-58
2021/05/02 13:58:44;;;;;;;4.03;1.00;;;;;;;;;;5063168;28;20032;-57
2021/05/02 14:01:11;;;;;;;2.95;1.10;;;;;;;;;;5068238;28;20028;-59
2021/05/02 14:03:37;;;;;;;3.33;1.10;;;;;;;;;;5062810;28;20036;-58
2021/05/02 14:06:09;;;;;;;4.10;1.10;;;;;;;;;;5059570;28;20077;-59
2021/05/02 14:08:36;;;;;;;1.33;0.93;;;;;;;;;;5050863;28;20092;-58
2021/05/02 14:11:02;;;;;;;2.83;1.20;;;;;;;;;;5064320;28;20028;-58
2021/05/02 14:13:28;;;;;;;2.80;1.10;;;;;;;;;;5075974;28;20046;-58
2021/05/02 14:15:54;;;;;;;1.52;1.10;;;;;;;;;;5067103;28;20024;-58
2021/05/02 14:18:23;;;;;;;1.45;0.80;;;;;;;;;;5081977;28;20061;-59
2021/05/02 14:20:49;;;;;;;1.95;0.98;;;;;;;;;;5057711;28;20028;-58
2021/05/02 14:23:15;;;;;;;3.45;0.90;;;;;;;;;;5067567;28;20213;-58
2021/05/02 14:25:41;;;;;;;2.67;0.60;;;;;;;;;;5065638;28;20091;-57
2021/05/02 14:28:08;;;;;;;3.50;0.85;;;;;;;;;;5079230;28;20036;-58
2021/05/02 14:30:34;;;;;;;1.60;0.88;;;;;;;;;;5066042;28;20032;-57
2021/05/02 14:33:00;;;;;;;2.80;1.00;;;;;;;;;;5060638;28;20217;-57
2021/05/02 14:35:27;;;;;;;2.00;0.73;;;;;;;;;;5065164;28;20042;-57
2021/05/02 14:37:53;;;;;;;2.75;1.05;;;;;;;;;;5058555;28;20055;-58
2021/05/02 14:40:19;;;;;;;2.25;0.80;;;;;;;;;;5063859;28;20036;-59
2021/05/02 14:42:47;;;;;;;5.35;0.90;;;;;;;;;;5082152;28;20099;-58
2021/05/02 14:45:16;;;;;;;3.92;0.90;;;;;;;;;;5059515;28;20130;-58
2021/05/02 14:47:42;;;;;;;2.72;1.20;;;;;;;;;;5064571;28;20050;-59
2021/05/02 14:50:10;;;;;;;1.63;0.90;;;;;;;;;;5060486;28;20091;-56
2021/05/02 14:52:37;;;;;;;2.67;1.00;;;;;;;;;;5064114;28;20159;-57